Time;durP1;ratioP1;P1;durP2;ratioP2;P2;SDS_P1;SDS_P2;PMS_P1;PMS_P2;Temp;Humidity;BMP_temperature;BMP_pressure;BME280_temperature;BME280_humidity;BME280_pressure;Samples;Min_cycle;Max_cycle;Signal;HPM_P1;HPM_P2
2020/12/26 00:01:41;;;;;;;16.62;9.18;;;;;;;1.06;76.81;98187.22;1857367;76;20876;-73
2020/12/26 00:04:07;;;;;;;16.52;8.13;;;;;;;1.09;77.00;98180.11;1857421;77;21002;-73
2020/12/26 00:06:33;;;;;;;16.75;8.13;;;;;;;1.12;77.12;98185.03;1857440;76;20916;-73
2020/12/26 00:08:59;;;;;;;15.53;8.03;;;;;;;1.13;77.25;98182.66;1857441;77;21150;-72
2020/12/26 00:11:24;;;;;;;15.83;8.35;;;;;;;1.11;76.73;98183.38;1857464;76;21316;-72
2020/12/26 00:13:50;;;;;;;11.63;6.90;;;;;;;1.16;76.85;98182.73;1857342;77;20978;-73
2020/12/26 00:16:16;;;;;;;14.70;6.90;;;;;;;1.16;77.08;98182.22;1857407;76;20971;-72
2020/12/26 00:18:42;;;;;;;16.23;8.08;;;;;;;1.19;77.26;98188.45;1857396;77;20939;-73
2020/12/26 00:21:13;;;;;;;15.43;7.85;;;;;;;0.87;75.41;98181.48;1857495;76;21026;-72
2020/12/26 00:23:39;;;;;;;13.83;7.37;;;;;;;0.87;75.41;98181.48;1856265;77;21944;-73
2020/12/26 00:26:05;;;;;;;14.90;8.03;;;;;;;0.89;76.35;98189.57;1857538;76;21038;-74
2020/12/26 00:28:31;;;;;;;12.88;6.60;;;;;;;0.91;76.45;98182.16;1857565;77;21006;-74
2020/12/26 00:30:57;;;;;;;15.90;7.55;;;;;;;0.83;76.09;98177.89;1857563;76;21046;-73
2020/12/26 00:33:23;;;;;;;17.30;7.40;;;;;;;0.89;76.64;98186.91;1857630;77;20980;-74
2020/12/26 00:35:49;;;;;;;12.20;6.37;;;;;;;0.81;76.38;98187.97;1857598;76;22184;-74
2020/12/26 00:38:14;;;;;;;14.93;8.13;;;;;;;0.78;76.31;98197.73;1857403;77;20983;-73
2020/12/26 00:40:40;;;;;;;18.62;10.45;;;;;;;0.80;76.58;98196.19;1857541;76;21558;-73
2020/12/26 00:43:06;;;;;;;14.60;9.03;;;;;;;0.72;76.86;98194.58;1857590;77;20923;-74
2020/12/26 00:45:32;;;;;;;14.58;7.45;;;;;;;0.55;77.18;98199.57;1857624;76;20979;-74
2020/12/26 00:47:57;;;;;;;16.77;8.60;;;;;;;0.63;77.54;98202.52;1857592;77;21331;-74
2020/12/26 00:50:23;;;;;;;12.85;7.25;;;;;;;0.69;77.57;98199.02;1857558;76;21526;-74
2020/12/26 00:52:49;;;;;;;10.90;6.25;;;;;;;0.63;77.93;98206.52;1857605;77;22193;-73
2020/12/26 00:55:15;;;;;;;13.18;6.50;;;;;;;0.69;77.85;98209.69;1857646;76;20932;-74
2020/12/26 00:57:42;;;;;;;15.55;6.70;;;;;;;0.69;77.97;98211.02;1857570;77;21310;-74
2020/12/26 01:00:08;;;;;;;11.40;5.72;;;;;;;0.69;77.84;98215.02;1857594;76;21251;-74
2020/12/26 01:02:34;;;;;;;9.60;3.85;;;;;;;0.70;77.69;98211.83;1857497;77;21174;-74
2020/12/26 01:05:00;;;;;;;11.57;5.05;;;;;;;0.75;77.41;98217.33;1857539;76;20896;-73
2020/12/26 01:07:26;;;;;;;11.03;5.90;;;;;;;0.69;77.33;98223.53;1857614;77;21097;-73
2020/12/26 01:09:52;;;;;;;9.75;5.20;;;;;;;0.68;77.39;98225.35;1857526;76;20915;-73
2020/12/26 01:12:17;;;;;;;9.65;5.53;;;;;;;0.67;77.06;98220.23;1857641;77;21645;-73
2020/12/26 01:14:43;;;;;;;9.90;5.80;;;;;;;0.71;77.54;98216.13;1857471;77;20923;-73
2020/12/26 01:17:12;;;;;;;10.18;5.17;;;;;;;0.77;77.77;98216.11;1857544;76;21973;-74
2020/12/26 01:19:38;;;;;;;11.18;5.17;;;;;;;0.83;77.74;98213.91;1826731;77;21042;-73
2020/12/26 01:22:03;;;;;;;11.78;5.80;;;;;;;0.83;77.56;98208.57;1857551;76;21018;-71
2020/12/26 01:24:29;;;;;;;14.50;6.60;;;;;;;0.82;77.55;98212.27;1857559;77;21261;-71
2020/12/26 01:26:55;;;;;;;12.07;5.40;;;;;;;0.85;77.69;98209.69;1857496;76;21097;-72
2020/12/26 01:29:21;;;;;;;10.63;5.42;;;;;;;0.79;76.35;98206.56;1857605;77;21087;-71
2020/12/26 01:31:52;;;;;;;12.90;6.45;;;;;;;0.73;76.23;98211.40;1857533;76;21201;-72
2020/12/26 01:34:18;;;;;;;10.93;5.25;;;;;;;0.73;76.89;98212.73;1856335;77;21027;-73
2020/12/26 01:36:50;;;;;;;14.65;6.95;;;;;;;0.71;76.92;98214.28;1857569;76;21110;-73
2020/12/26 01:39:17;;;;;;;9.38;5.40;;;;;;;0.71;76.95;98210.28;1857401;77;21051;-73
2020/12/26 01:41:43;;;;;;;11.70;6.50;;;;;;;0.68;77.03;98208.53;1857513;76;21138;-72
2020/12/26 01:44:08;;;;;;;15.58;7.45;;;;;;;0.69;77.31;98211.02;1826433;77;20881;-72
2020/12/26 01:46:34;;;;;;;15.60;6.95;;;;;;;0.69;77.30;98214.20;1857533;76;20912;-72
2020/12/26 01:49:00;;;;;;;13.13;7.42;;;;;;;0.69;77.53;98212.87;1857496;77;21568;-72
2020/12/26 01:51:27;;;;;;;13.18;7.42;;;;;;;0.63;77.45;98209.19;1857492;76;20979;-73
2020/12/26 01:53:53;;;;;;;15.03;9.30;;;;;;;0.66;77.47;98210.09;1857518;77;21079;-73
2020/12/26 01:56:19;;;;;;;17.52;8.73;;;;;;;0.52;78.00;98209.85;1857581;76;20980;-72
2020/12/26 01:58:45;;;;;;;15.58;8.33;;;;;;;0.57;78.11;98210.02;1857524;77;20939;-73
2020/12/26 02:01:11;;;;;;;15.40;7.95;;;;;;;0.40;78.22;98204.84;1857531;76;21282;-72
2020/12/26 02:03:42;;;;;;;14.68;8.15;;;;;;;0.32;78.88;98201.89;1857466;77;20907;-72
2020/12/26 02:06:08;;;;;;;13.53;7.05;;;;;;;0.35;79.13;98206.83;1857497;76;21130;-72
2020/12/26 02:08:35;;;;;;;19.17;9.68;;;;;;;0.20;79.77;98205.73;1857479;77;21130;-73
2020/12/26 02:11:05;;;;;;;16.52;10.03;;;;;;;0.10;79.90;98204.02;1857583;76;21122;-73
2020/12/26 02:13:32;;;;;;;15.08;8.53;;;;;;;0.13;80.08;98210.25;1800406;77;21680;-73
2020/12/26 02:16:29;;;;;;;15.90;8.75;;;;;;;0.23;79.73;98212.48;1857422;76;21062;-72
2020/12/26 02:18:54;;;;;;;18.45;9.30;;;;;;;0.22;79.44;98214.84;1729064;82;21121;-72
2020/12/26 02:21:23;;;;;;;13.53;7.00;;;;;;;0.21;78.85;98214.03;1696738;83;20911;-73
2020/12/26 02:23:49;;;;;;;15.58;8.03;;;;;;;0.26;79.17;98215.56;1720579;83;21163;-73
2020/12/26 02:26:15;;;;;;;16.25;6.87;;;;;;;0.31;78.90;98219.44;1705589;82;21230;-74
2020/12/26 02:28:41;;;;;;;12.88;7.10;;;;;;;0.20;77.82;98220.91;1705600;84;20981;-75
2020/12/26 02:31:07;;;;;;;13.10;7.50;;;;;;;0.23;78.35;98223.95;1705592;82;20989;-74
2020/12/26 02:33:34;;;;;;;11.80;6.75;;;;;;;0.28;78.48;98220.17;1705629;84;21208;-74
2020/12/26 02:36:03;;;;;;;10.15;6.05;;;;;;;0.31;78.45;98222.92;1705617;82;21108;-73
2020/12/26 02:38:29;;;;;;;11.68;6.20;;;;;;;0.31;77.74;98220.77;1705740;84;22428;-72
2020/12/26 02:40:55;;;;;;;8.20;5.97;;;;;;;0.31;77.55;98229.58;1705520;82;21017;-72
2020/12/26 02:43:26;;;;;;;12.82;6.15;;;;;;;0.34;77.88;98225.16;1705530;84;21603;-72
2020/12/26 02:48:42;;;;;;;9.78;5.42;;;;;;;0.36;77.87;98218.31;1767347;81;21057;-72
2020/12/26 02:51:08;;;;;;;9.80;5.22;;;;;;;0.38;77.59;98232.23;1763651;81;21194;-73
2020/12/26 02:53:34;;;;;;;10.90;5.53;;;;;;;0.42;77.23;98226.27;1760956;81;20882;-73
2020/12/26 02:55:59;;;;;;;9.13;5.22;;;;;;;0.37;77.50;98226.61;1734680;82;21021;-73
2020/12/26 02:58:25;;;;;;;8.93;5.10;;;;;;;0.42;77.53;98226.78;1734641;82;20927;-72
2020/12/26 03:00:51;;;;;;;10.30;5.47;;;;;;;0.44;77.79;98232.23;1734693;82;21019;-72
2020/12/26 03:03:17;;;;;;;9.98;5.25;;;;;;;0.49;77.79;98232.92;1734701;82;20942;-73
2020/12/26 03:05:43;;;;;;;8.45;4.58;;;;;;;0.53;77.87;98232.82;1734640;82;21002;-73
2020/12/26 03:08:09;;;;;;;8.85;4.72;;;;;;;0.58;77.73;98232.98;1734673;82;21144;-73
2020/12/26 03:10:34;;;;;;;12.33;6.72;;;;;;;0.58;77.83;98236.98;1734668;82;21035;-73
2020/12/26 03:13:00;;;;;;;10.03;5.60;;;;;;;0.54;77.11;98235.79;1734661;82;20934;-73
2020/12/26 03:15:26;;;;;;;9.25;5.80;;;;;;;0.51;77.09;98243.70;1734712;82;21021;-73
2020/12/26 03:17:52;;;;;;;10.30;5.50;;;;;;;0.53;77.29;98245.64;1734568;82;21045;-73
2020/12/26 03:20:18;;;;;;;10.10;5.30;;;;;;;0.50;76.39;98249.22;1734686;82;20894;-72
2020/12/26 03:22:44;;;;;;;10.68;6.20;;;;;;;0.37;76.64;98253.27;1734613;82;21517;-72
2020/12/26 03:25:10;;;;;;;10.85;5.87;;;;;;;0.35;76.86;98257.48;1734688;82;21016;-73
2020/12/26 03:27:36;;;;;;;11.22;5.85;;;;;;;0.32;76.76;98261.06;1734663;82;21206;-73
2020/12/26 03:30:02;;;;;;;11.25;5.60;;;;;;;0.38;77.34;98264.23;1734633;82;21112;-73
2020/12/26 03:32:27;;;;;;;10.65;5.75;;;;;;;0.43;77.17;98263.92;1734647;82;20961;-72
2020/12/26 03:34:53;;;;;;;11.03;7.15;;;;;;;0.43;77.33;98257.26;1734672;82;21576;-73
2020/12/26 03:37:19;;;;;;;12.23;6.58;;;;;;;0.43;76.91;98269.77;1734694;82;20922;-73
2020/12/26 03:39:49;;;;;;;9.40;5.60;;;;;;;0.43;77.01;98262.59;1734688;82;21931;-72
2020/12/26 03:42:13;;;;;;;9.13;5.47;;;;;;;0.43;77.08;98259.92;1733879;80;21065;-72
2020/12/26 03:44:39;;;;;;;10.90;5.42;;;;;;;0.44;76.97;98268.23;1734735;82;21138;-72
2020/12/26 03:47:08;;;;;;;9.20;5.33;;;;;;;0.45;76.92;98269.86;1734539;82;21049;-73
2020/12/26 03:49:34;;;;;;;10.30;5.50;;;;;;;0.45;76.94;98267.20;1734771;82;21109;-73
2020/12/26 03:52:00;;;;;;;7.28;4.80;;;;;;;0.39;76.20;98271.20;1734630;82;21195;-73
2020/12/26 03:54:25;;;;;;;7.20;4.87;;;;;;;0.20;74.89;98276.36;1734615;82;20926;-74
2020/12/26 03:56:52;;;;;;;11.68;5.28;;;;;;;0.25;76.04;98275.72;1734606;82;20949;-73
2020/12/26 03:59:18;;;;;;;11.65;5.58;;;;;;;0.28;76.66;98284.66;1734793;82;21831;-73
2020/12/26 04:01:43;;;;;;;9.75;4.95;;;;;;;0.28;76.47;98284.66;1734822;82;20919;-72
2020/12/26 04:04:10;;;;;;;13.43;5.80;;;;;;;0.24;76.69;98286.08;1734879;82;22296;-72
2020/12/26 04:06:36;;;;;;;10.60;5.78;;;;;;;0.24;76.84;98285.56;1734758;82;21508;-72
2020/12/26 04:09:02;;;;;;;10.45;5.78;;;;;;;0.26;76.91;98288.05;1734916;82;21037;-72
2020/12/26 04:11:28;;;;;;;10.80;5.28;;;;;;;0.26;77.07;98284.05;1734846;82;21174;-73
2020/12/26 04:13:54;;;;;;;10.40;4.80;;;;;;;0.25;77.13;98278.39;1734783;82;21919;-73
2020/12/26 04:16:20;;;;;;;9.20;5.17;;;;;;;0.28;77.20;98280.66;1734857;82;21215;-73
2020/12/26 04:18:46;;;;;;;9.83;4.92;;;;;;;0.32;77.33;98281.87;1705527;82;21085;-72
2020/12/26 04:21:11;;;;;;;8.88;4.55;;;;;;;0.36;77.15;98287.11;1734804;82;20926;-73
2020/12/26 04:23:37;;;;;;;8.80;5.30;;;;;;;0.40;77.34;98284.83;1734790;82;20997;-73
2020/12/26 04:26:03;;;;;;;9.93;5.22;;;;;;;0.44;77.13;98288.73;1734846;82;20926;-74
2020/12/26 04:28:29;;;;;;;9.33;4.60;;;;;;;0.45;77.21;98289.86;1734832;82;21190;-72
2020/12/26 04:30:54;;;;;;;15.35;7.10;;;;;;;0.46;76.90;98284.83;1734731;82;21065;-73
2020/12/26 04:33:20;;;;;;;12.28;6.53;;;;;;;0.45;76.69;98284.52;1734797;82;21022;-73
2020/12/26 04:35:46;;;;;;;8.83;4.65;;;;;;;0.30;75.47;98291.92;1734848;82;21616;-72
2020/12/26 04:38:12;;;;;;;8.65;4.72;;;;;;;0.28;76.39;98292.66;1734758;82;21041;-73
2020/12/26 04:40:40;;;;;;;10.13;4.25;;;;;;;0.34;76.52;98287.80;1734837;82;21302;-72
2020/12/26 04:43:06;;;;;;;7.62;4.35;;;;;;;0.37;76.40;98291.41;1734698;82;21120;-73
2020/12/26 04:45:32;;;;;;;6.62;4.30;;;;;;;0.37;76.39;98292.74;1734801;82;20978;-73
2020/12/26 04:48:04;;;;;;;8.05;4.62;;;;;;;0.38;76.73;98286.89;1734628;82;21117;-73
2020/12/26 04:50:32;;;;;;;7.12;4.15;;;;;;;0.42;76.68;98288.92;1734793;82;21117;-72
2020/12/26 04:53:00;;;;;;;11.48;5.20;;;;;;;0.47;76.55;98302.46;1734883;82;21170;-72
2020/12/26 04:55:32;;;;;;;7.60;4.30;;;;;;;0.42;75.74;98304.09;1734755;82;21208;-72
2020/12/26 04:58:08;;;;;;;6.85;4.58;;;;;;;0.45;76.38;98309.86;1734318;81;21132;-74
2020/12/26 05:00:34;;;;;;;9.90;5.47;;;;;;;0.52;76.52;98316.52;1734786;82;21057;-72
2020/12/26 05:03:05;;;;;;;7.40;4.40;;;;;;;0.52;76.13;98313.85;1734762;82;21125;-73
2020/12/26 05:05:35;;;;;;;7.90;4.97;;;;;;;0.52;76.33;98313.34;1734806;82;21100;-72
2020/12/26 05:08:07;;;;;;;7.53;4.08;;;;;;;0.53;76.14;98311.48;1734742;82;21105;-73
2020/12/26 05:10:33;;;;;;;8.08;4.92;;;;;;;0.56;76.24;98312.39;1734477;82;21037;-74
2020/12/26 05:12:59;;;;;;;9.73;4.90;;;;;;;0.54;76.11;98305.94;1734742;82;21156;-73
2020/12/26 05:15:26;;;;;;;10.28;5.47;;;;;;;0.55;76.23;98310.75;1734807;82;21064;-73
2020/12/26 05:17:52;;;;;;;10.23;4.95;;;;;;;0.55;76.18;98302.76;1734716;82;21231;-74
2020/12/26 05:20:18;;;;;;;7.87;5.25;;;;;;;0.56;76.06;98303.88;1734777;82;20903;-73
2020/12/26 05:22:44;;;;;;;19.85;10.15;;;;;;;0.55;76.31;98309.42;1705521;82;21485;-73
2020/12/26 05:25:10;;;;;;;15.45;8.60;;;;;;;0.58;76.31;98312.18;1734771;82;21019;-74
2020/12/26 05:27:36;;;;;;;16.30;9.40;;;;;;;0.59;76.48;98316.48;1734773;82;21121;-74
2020/12/26 05:30:04;;;;;;;16.40;8.60;;;;;;;0.63;76.54;98318.53;1734752;82;21584;-74
2020/12/26 05:32:30;;;;;;;11.65;7.30;;;;;;;0.65;76.54;98320.99;1734835;82;21108;-73
2020/12/26 05:35:07;;;;;;;12.47;6.80;;;;;;;0.63;76.36;98328.39;1734746;82;20942;-73
2020/12/26 05:37:34;;;;;;;12.28;6.33;;;;;;;0.62;76.49;98327.57;1734784;82;21501;-73
2020/12/26 05:40:01;;;;;;;11.53;5.92;;;;;;;0.57;76.31;98327.36;1734647;82;21176;-72
2020/12/26 05:42:27;;;;;;;9.45;4.10;;;;;;;0.52;76.71;98324.52;1734708;82;21213;-73
2020/12/26 05:45:05;;;;;;;11.35;5.40;;;;;;;0.48;76.63;98329.94;1734667;82;21176;-74
2020/12/26 05:47:31;;;;;;;12.90;6.95;;;;;;;0.42;76.91;98331.58;1708511;82;21592;-73
2020/12/26 05:49:56;;;;;;;12.47;7.25;;;;;;;0.44;76.97;98332.73;1734775;82;20982;-72
2020/12/26 05:52:22;;;;;;;17.95;10.03;;;;;;;0.28;77.04;98334.80;1734747;82;21037;-72
2020/12/26 05:54:50;;;;;;;25.77;13.28;;;;;;;0.20;77.61;98332.84;1734763;82;21088;-73
2020/12/26 05:57:17;;;;;;;14.43;7.67;;;;;;;0.17;77.70;98331.91;1734641;82;21121;-73
2020/12/26 05:59:51;;;;;;;14.78;7.35;;;;;;;0.12;77.92;98343.20;1734644;82;21129;-73
2020/12/26 06:02:22;;;;;;;16.37;8.55;;;;;;;0.10;78.21;98334.59;1734719;82;21120;-73
2020/12/26 06:05:04;;;;;;;12.05;6.17;;;;;;;0.14;78.23;98342.98;1734740;82;21121;-72
2020/12/26 06:07:32;;;;;;;12.00;5.92;;;;;;;0.15;78.36;98341.45;1734771;82;21235;-73
2020/12/26 06:10:00;;;;;;;10.10;6.12;;;;;;;0.12;78.65;98339.72;1734917;82;21161;-73
2020/12/26 06:12:28;;;;;;;25.00;11.47;;;;;;;0.12;78.73;98347.70;1734906;82;21161;-72
2020/12/26 06:14:54;;;;;;;14.45;7.80;;;;;;;0.08;78.66;98345.95;1734628;82;21116;-73
2020/12/26 06:17:22;;;;;;;46.33;8.70;;;;;;;-0.01;78.92;98349.84;1734687;82;20973;-73
2020/12/26 06:20:06;;;;;;;15.63;6.60;;;;;;;0.02;79.09;98349.96;1734772;82;21440;-74
2020/12/26 06:22:47;;;;;;;11.97;7.75;;;;;;;0.03;79.17;98362.26;1734666;82;21592;-73
2020/12/26 06:25:24;;;;;;;10.20;6.83;;;;;;;0.07;79.08;98359.48;1734781;82;21081;-72
2020/12/26 06:27:59;;;;;;;11.70;6.80;;;;;;;0.09;79.26;98367.60;1734751;82;21116;-72
2020/12/26 06:30:25;;;;;;;11.08;6.95;;;;;;;0.08;79.28;98375.77;1734771;82;21029;-74
2020/12/26 06:32:52;;;;;;;10.35;6.30;;;;;;;0.08;79.49;98373.11;1734475;82;21371;-74
2020/12/26 06:35:20;;;;;;;14.07;8.18;;;;;;;0.02;79.65;98383.27;1734625;82;21125;-73
2020/12/26 06:37:48;;;;;;;14.05;8.73;;;;;;;-0.11;79.61;98394.20;1734240;82;21049;-74
2020/12/26 06:40:31;;;;;;;14.60;9.65;;;;;;;0.01;79.62;98394.95;1730405;82;21048;-74
2020/12/26 06:42:56;;;;;;;14.65;7.55;;;;;;;0.06;79.77;98399.15;1734704;82;21434;-71
2020/12/26 06:45:36;;;;;;;10.10;6.15;;;;;;;0.13;79.34;98407.46;1734667;82;21200;-72
2020/12/26 06:48:03;;;;;;;10.05;6.20;;;;;;;0.13;79.21;98410.13;1734556;82;21045;-73
2020/12/26 06:50:31;;;;;;;12.85;7.85;;;;;;;0.18;79.10;98405.02;1734738;82;21132;-74
2020/12/26 06:52:57;;;;;;;15.00;10.28;;;;;;;0.24;78.95;98420.69;1734727;82;21161;-73
2020/12/26 06:55:50;;;;;;;12.40;8.00;;;;;;;0.24;78.54;98416.17;1734720;82;20938;-73
2020/12/26 06:58:29;;;;;;;15.35;6.17;;;;;;;0.26;78.65;98422.15;1734456;82;21466;-74
2020/12/26 07:00:55;;;;;;;14.40;6.70;;;;;;;0.33;78.74;98419.47;1734742;82;21064;-74
2020/12/26 07:03:28;;;;;;;14.00;6.95;;;;;;;0.40;78.52;98428.30;1734756;82;20899;-73
2020/12/26 07:05:53;;;;;;;11.63;6.22;;;;;;;0.43;78.33;98428.42;1734602;82;21049;-75
2020/12/26 07:08:32;;;;;;;8.55;4.78;;;;;;;0.43;77.57;98431.08;1734749;82;21657;-72
2020/12/26 07:11:02;;;;;;;18.95;9.73;;;;;;;0.43;77.48;98435.90;1734750;82;21200;-73
2020/12/26 07:13:48;;;;;;;25.05;14.58;;;;;;;0.48;77.65;98430.75;1734488;82;21152;-73
2020/12/26 07:16:41;;;;;;;18.92;15.98;;;;;;;0.51;77.72;98437.52;1734814;82;21038;-73
2020/12/26 07:19:33;;;;;;;9.80;6.62;;;;;;;0.46;76.03;98436.00;1734618;82;21049;-72
2020/12/26 07:22:05;;;;;;;11.08;5.75;;;;;;;0.55;76.79;98442.77;1734773;82;21116;-73
2020/12/26 07:24:42;;;;;;;15.98;7.70;;;;;;;0.62;77.09;98441.44;1734654;82;21328;-73
2020/12/26 07:27:28;;;;;;;16.05;7.37;;;;;;;0.66;77.08;98443.47;1734619;82;21632;-73
2020/12/26 07:30:16;;;;;;;34.05;15.70;;;;;;;0.72;76.90;98452.52;1734674;82;21065;-72
2020/12/26 07:32:53;;;;;;;12.43;7.60;;;;;;;0.68;75.63;98445.92;1734908;82;21135;-73
2020/12/26 07:35:26;;;;;;;15.72;6.25;;;;;;;0.67;76.06;98454.45;1734790;82;21104;-72
2020/12/26 07:38:11;;;;;;;17.90;8.08;;;;;;;0.70;76.13;98455.39;1734667;82;22061;-72
2020/12/26 07:40:45;;;;;;;17.75;7.95;;;;;;;0.74;76.55;98460.61;1734611;82;21498;-73
2020/12/26 07:43:15;;;;;;;21.93;10.50;;;;;;;0.75;76.59;98461.42;1734775;82;21052;-72
2020/12/26 07:45:43;;;;;;;14.98;7.92;;;;;;;0.79;76.58;98458.67;1734704;82;21140;-73
2020/12/26 07:48:09;;;;;;;12.78;7.42;;;;;;;0.80;76.39;98460.30;1734572;82;21152;-74
2020/12/26 07:50:38;;;;;;;9.83;5.60;;;;;;;0.81;76.33;98460.61;1734661;82;21198;-73
2020/12/26 07:53:06;;;;;;;29.20;16.12;;;;;;;0.78;75.75;98472.52;1734037;82;21203;-73
2020/12/26 07:55:34;;;;;;;30.67;15.07;;;;;;;0.78;76.08;98476.52;1734968;82;21049;-73
2020/12/26 07:58:12;;;;;;;30.63;15.50;;;;;;;0.76;75.12;98471.06;1734421;82;21152;-74
2020/12/26 08:00:42;;;;;;;18.45;10.30;;;;;;;0.78;75.87;98470.38;1734704;82;21573;-73
2020/12/26 08:03:12;;;;;;;31.07;17.65;;;;;;;0.84;75.80;98484.20;1734660;82;22200;-73
2020/12/26 08:05:39;;;;;;;35.78;18.02;;;;;;;0.87;75.99;98482.47;1734644;82;21112;-73
2020/12/26 08:08:23;;;;;;;19.05;10.03;;;;;;;0.93;75.67;98468.28;1734602;82;21160;-73
2020/12/26 08:11:00;;;;;;;21.90;10.53;;;;;;;0.88;75.42;98457.42;1734656;81;21144;-71
2020/12/26 08:13:25;;;;;;;31.80;22.35;;;;;;;0.86;75.41;98464.83;1729913;82;21048;-73
2020/12/26 08:16:05;;;;;;;38.33;22.13;;;;;;;0.81;75.21;98468.61;1734614;82;21199;-72
2020/12/26 08:18:33;;;;;;;14.28;8.23;;;;;;;0.83;75.63;98468.70;1734648;82;21593;-73
2020/12/26 08:20:59;;;;;;;18.62;10.60;;;;;;;0.87;74.95;98472.31;1734645;82;21160;-73
2020/12/26 08:23:24;;;;;;;59.45;28.90;;;;;;;0.81;75.33;98476.10;1734607;82;21037;-73
2020/12/26 08:25:50;;;;;;;35.60;20.80;;;;;;;0.82;75.58;98476.41;1734664;82;21596;-73
2020/12/26 08:28:19;;;;;;;41.88;19.62;;;;;;;0.91;75.50;98489.54;1734318;82;21310;-73
2020/12/26 08:30:49;;;;;;;16.42;10.05;;;;;;;0.94;75.22;98489.97;1705449;82;21477;-72
2020/12/26 08:33:31;;;;;;;29.05;14.60;;;;;;;0.92;75.26;98490.66;1734635;82;21113;-74
2020/12/26 08:36:15;;;;;;;17.80;10.08;;;;;;;0.92;75.11;98487.17;1734754;82;21648;-71
2020/12/26 08:38:51;;;;;;;24.35;14.68;;;;;;;0.86;75.06;98487.50;1734500;82;21152;-73
2020/12/26 08:41:17;;;;;;;23.07;11.50;;;;;;;0.81;75.23;98485.44;1733847;81;21963;-74
2020/12/26 08:43:43;;;;;;;17.87;8.85;;;;;;;0.81;75.43;98497.45;1734627;82;20953;-73
2020/12/26 08:46:18;;;;;;;20.97;16.25;;;;;;;0.80;75.20;98502.48;1734942;82;21001;-74
2020/12/26 08:48:44;;;;;;;15.40;7.72;;;;;;;0.81;75.53;98511.30;1734373;82;21459;-75
2020/12/26 08:51:19;;;;;;;17.65;13.65;;;;;;;0.80;75.49;98511.00;1734890;82;21026;-72
2020/12/26 08:53:46;;;;;;;16.30;8.48;;;;;;;0.81;75.65;98521.97;1731467;81;21537;-73
2020/12/26 08:56:11;;;;;;;14.05;7.30;;;;;;;0.80;75.77;98528.34;1734709;82;21081;-73
2020/12/26 08:58:37;;;;;;;18.25;9.20;;;;;;;0.78;75.63;98535.22;1734743;82;20945;-73
2020/12/26 09:01:05;;;;;;;13.53;9.73;;;;;;;0.74;75.85;98540.64;1734824;82;20974;-73
2020/12/26 09:03:33;;;;;;;15.13;10.35;;;;;;;0.70;76.10;98546.60;1734761;82;21475;-73
2020/12/26 09:06:00;;;;;;;15.25;10.72;;;;;;;0.68;76.30;98547.30;1734827;82;21581;-73
2020/12/26 09:08:34;;;;;;;14.63;8.08;;;;;;;0.68;76.53;98548.11;1734716;82;21498;-73
2020/12/26 09:11:08;;;;;;;18.70;10.25;;;;;;;0.73;76.75;98549.67;1734807;82;21105;-74
2020/12/26 09:13:37;;;;;;;17.48;10.00;;;;;;;0.83;76.75;98547.41;1734715;82;21014;-73
2020/12/26 09:16:12;;;;;;;32.78;15.08;;;;;;;0.77;76.90;98551.41;1734843;82;21045;-73
2020/12/26 09:18:47;;;;;;;12.95;8.63;;;;;;;0.78;77.04;98541.07;1734745;82;21407;-73
2020/12/26 09:21:25;;;;;;;17.52;11.68;;;;;;;0.75;77.20;98545.45;1734804;82;21513;-73
2020/12/26 09:23:54;;;;;;;63.17;29.92;;;;;;;0.75;77.37;98550.80;1734985;82;21161;-74
2020/12/26 09:26:24;;;;;;;51.40;24.55;;;;;;;0.83;77.85;98545.27;1734818;82;21100;-73
2020/12/26 09:28:56;;;;;;;;;;;;;;;0.87;77.51;98550.52;1735889;82;21105;-74
2020/12/26 09:31:30;;;;;;;33.78;16.90;;;;;;;0.82;77.75;98545.77;1734857;82;21348;-72
2020/12/26 09:33:58;;;;;;;29.95;14.20;;;;;;;0.84;77.81;98554.91;1734699;82;21112;-73
2020/12/26 09:36:26;;;;;;;22.73;10.50;;;;;;;0.87;77.92;98558.52;1734789;82;21030;-75
2020/12/26 09:38:52;;;;;;;21.23;12.43;;;;;;;0.87;77.92;98555.84;1734748;82;21057;-73
2020/12/26 09:41:23;;;;;;;17.98;11.30;;;;;;;0.89;77.64;98545.78;1734843;82;21556;-73
2020/12/26 09:43:52;;;;;;;17.35;11.60;;;;;;;0.90;77.48;98547.42;1734740;82;21443;-73
2020/12/26 09:46:18;;;;;;;23.40;14.13;;;;;;;0.91;77.54;98545.58;1734832;82;21124;-73
2020/12/26 09:48:45;;;;;;;24.72;13.30;;;;;;;0.95;77.56;98538.30;1734702;82;21115;-73
2020/12/26 09:51:15;;;;;;;20.02;11.65;;;;;;;0.95;77.35;98540.97;1734805;82;21149;-73
2020/12/26 09:53:42;;;;;;;25.17;12.25;;;;;;;0.98;77.47;98541.89;1734790;82;21533;-73
2020/12/26 09:56:09;;;;;;;27.60;15.40;;;;;;;1.00;77.32;98539.83;1734761;82;21184;-73
2020/12/26 09:58:36;;;;;;;19.05;11.25;;;;;;;0.98;77.40;98536.55;1734649;82;21116;-74
2020/12/26 10:01:02;;;;;;;18.85;10.60;;;;;;;0.99;77.12;98540.03;1734745;82;21042;-74
2020/12/26 10:03:28;;;;;;;44.30;20.92;;;;;;;1.01;76.96;98547.31;1734756;82;21005;-73
2020/12/26 10:05:53;;;;;;;80.10;31.17;;;;;;;1.00;76.76;98543.83;1734801;82;20875;-74
2020/12/26 10:08:19;;;;;;;50.67;26.90;;;;;;;1.07;76.59;98550.51;1734788;82;21522;-74
2020/12/26 10:10:45;;;;;;;28.55;16.07;;;;;;;1.06;76.57;98546.20;1734712;82;20915;-74
2020/12/26 10:13:11;;;;;;;22.65;11.22;;;;;;;1.09;76.21;98545.78;1734768;82;21147;-74
2020/12/26 10:15:37;;;;;;;22.60;12.78;;;;;;;1.15;75.66;98541.47;1734713;82;20946;-73
2020/12/26 10:18:02;;;;;;;21.95;10.40;;;;;;;1.13;75.05;98543.02;1734784;82;21049;-74
2020/12/26 10:20:28;;;;;;;15.25;7.85;;;;;;;1.08;73.56;98544.14;1734591;82;21218;-74
2020/12/26 10:22:54;;;;;;;19.37;8.30;;;;;;;1.15;75.15;98546.81;1734653;82;21052;-73
2020/12/26 10:25:20;;;;;;;17.57;9.45;;;;;;;1.18;74.99;98547.72;1734718;82;20993;-73
2020/12/26 10:27:45;;;;;;;16.25;8.65;;;;;;;1.23;75.07;98547.42;1734750;82;21798;-74
2020/12/26 10:30:11;;;;;;;12.98;8.60;;;;;;;1.26;74.42;98548.84;1734671;82;20938;-73
2020/12/26 10:32:37;;;;;;;34.92;15.93;;;;;;;1.22;74.26;98544.97;1734837;82;21288;-73
2020/12/26 10:35:03;;;;;;;22.98;13.03;;;;;;;1.25;74.80;98540.53;1734659;82;21013;-73
2020/12/26 10:37:28;;;;;;;13.98;7.78;;;;;;;1.28;73.78;98542.30;1734740;82;20930;-73
2020/12/26 10:39:54;;;;;;;20.92;11.90;;;;;;;1.27;73.26;98531.80;1734663;82;21533;-73
2020/12/26 10:42:20;;;;;;;25.02;13.35;;;;;;;1.26;73.68;98534.16;1734803;82;21007;-73
2020/12/26 10:44:48;;;;;;;20.68;9.80;;;;;;;1.28;73.65;98545.45;1734680;82;21375;-74
2020/12/26 10:47:14;;;;;;;18.77;8.43;;;;;;;1.28;72.67;98542.30;1734660;82;21136;-74
2020/12/26 10:49:39;;;;;;;23.87;12.20;;;;;;;1.26;72.62;98537.65;1734734;82;20978;-73
2020/12/26 10:52:05;;;;;;;14.70;7.53;;;;;;;1.22;71.81;98543.11;1734846;82;20902;-73
2020/12/26 10:54:31;;;;;;;20.30;11.25;;;;;;;1.19;70.78;98528.83;1734792;82;21009;-73
2020/12/26 10:56:57;;;;;;;28.60;14.15;;;;;;;1.27;72.68;98530.46;1734810;82;22094;-73
2020/12/26 10:59:22;;;;;;;34.43;16.75;;;;;;;1.29;71.59;98520.42;1734673;82;20915;-73
2020/12/26 11:01:48;;;;;;;42.98;19.42;;;;;;;1.34;72.31;98525.94;1734806;82;21009;-74
2020/12/26 11:04:14;;;;;;;44.63;23.60;;;;;;;1.32;72.05;98531.48;1734739;82;21068;-74
2020/12/26 11:06:40;;;;;;;26.40;12.68;;;;;;;1.29;71.74;98541.27;1734839;82;20941;-73
2020/12/26 11:09:06;;;;;;;47.78;20.57;;;;;;;1.33;72.32;98541.66;1734766;82;21937;-73
2020/12/26 11:11:31;;;;;;;64.85;25.55;;;;;;;1.37;71.59;98542.90;1734740;82;20911;-73
2020/12/26 11:13:57;;;;;;;55.75;25.20;;;;;;;1.39;71.52;98536.31;1734784;82;21931;-74
2020/12/26 11:16:27;;;;;;;86.08;31.55;;;;;;;1.44;70.88;98534.85;1734750;82;21049;-73
2020/12/26 11:18:51;;;;;;;22.13;11.75;;;;;;;1.40;71.09;98537.95;1734250;82;21649;-74
2020/12/26 11:21:17;;;;;;;21.42;10.55;;;;;;;1.44;70.95;98538.86;1734763;82;21134;-74
2020/12/26 11:23:43;;;;;;;18.15;9.13;;;;;;;1.38;69.18;98529.33;1734613;82;21180;-74
2020/12/26 11:26:11;;;;;;;29.90;16.25;;;;;;;1.36;69.35;98530.55;1734626;82;20926;-73
2020/12/26 11:28:36;;;;;;;76.28;33.13;;;;;;;1.38;70.69;98539.20;1734667;82;22068;-74
2020/12/26 11:31:02;;;;;;;69.00;29.90;;;;;;;1.41;70.36;98532.91;1734651;82;20948;-74
2020/12/26 11:33:28;;;;;;;70.17;30.95;;;;;;;1.44;70.79;98535.67;1734717;82;21372;-74
2020/12/26 11:35:54;;;;;;;190.12;98.12;;;;;;;1.47;70.70;98536.61;1734535;82;20954;-73
2020/12/26 11:38:20;;;;;;;95.17;49.70;;;;;;;1.46;70.70;98535.48;1734732;82;20898;-73
2020/12/26 11:40:45;;;;;;;217.93;73.75;;;;;;;1.47;69.95;98541.13;1734622;82;20974;-73